Paul R Tregurtha — WYR4481 — position and weather

sailwx.info

Track history (hours):
 
Tides and Currents Weather Stations Pressure Air Temp Water Temp Dewpoint Dewpoint Depression Visibility Wind Speed Wind Dir Waves Ship Positions

Paul R Tregurtha

Owner: THE INTERLAKE STEAMSHIP COMPANY, Middleburg Heights, OH. More information available from US FCC via Universal Licensing System and Coast Guard Vessel Documentation Center.

Last reported at 2014-Nov-21 23:00 UTC. Time now 2014-Nov-21 23:51 UTC.
Position N 47°12' W 088°48'.

Length 308 m; draft 8.5 m.

Type: Cargo ship. MMSI: 366904940.

Wind from 210 at 30 knots

Barometer 1012.2 mb
Air temperature -1.1 ° C
Visibility: greater than 5.4 NM
Water temperature 5.2 ° C

Date/timePositionNaut miles runAvg speedWind from/ knotsBaromVisibWave heightAir tempDewpointWater temp
2014-Nov-21 23:00N 47°12' W 088°48'1010.1 210 / 301012.2 5.4 -1.1 5.2
2014-Nov-21 22:00N 47°18' W 088°36'1010.1 190 / 231013.2 -1.1 6.3
2014-Nov-21 21:00N 47°24' W 088°24'1413.6 180 / 201014.6 -3.9 6.4
2014-Nov-21 20:00N 47°30' W 088°06'1212.2 190 / 241016.3 -4.8 5.6
2014-Nov-21 19:00N 47°30' W 087°48'7 7.2 220 / 191018.3 -5.7 5.6
2014-Nov-21 18:00N 47°24' W 087°42'1312.7 220 / 231019.6 -3.7 5.3
2014-Nov-21 17:00N 47°12' W 087°36'1312.7 220 / 181022.0 -5.5 5.3
2014-Nov-21 16:00N 47°00' W 087°30'1312.7 240 / 141023.4 -7.3 5.1
2014-Nov-21 15:00N 46°48' W 087°24'1212.0 230 / 171024.4 -8.4 5.5
2014-Nov-21 14:00N 46°36' W 087°24'0 0.0 240 / 111025.7 -10.6 3.2
2014-Nov-21 13:00N 46°36' W 087°24'0 0.0 200 / 71025.1 -11.9 2.9
2014-Nov-21 12:00N 46°36' W 087°24'0 0.0 230 / 81024.7 -11.5 2.9
2014-Nov-21 11:00N 46°36' W 087°24'0 0.0 210 / 71024.0 -11.1 3.0
2014-Nov-21 10:00N 46°36' W 087°24'0 0.0 310 / 61023.7 -10.3 3.0
2014-Nov-21 09:00N 46°36' W 087°24'0 0.0 200 / 61023.0 -10.8 3.0
2014-Nov-21 08:00N 46°36' W 087°24'0 0.0 200 / 71023.0 -9.7 3.1
2014-Nov-21 07:00N 46°36' W 087°24'0 0.0 160 / 51022.4 -7.5 3.2
2014-Nov-21 06:00N 46°36' W 087°24'0 0.0 220 / 61021.7 -9.3 3.3
2014-Nov-21 05:00N 46°36' W 087°24'0 0.0 210 / 61020.7 -8.6 3.3
2014-Nov-21 04:00N 46°36' W 087°24'0 0.0 210 / 81020.0 -9.6 3.4
2014-Nov-21 03:00N 46°36' W 087°24'0 0.0 210 / 71019.3 -10.4 3.4
2014-Nov-21 02:00N 46°36' W 087°24'0 0.0 200 / 71019.0 -11.2 3.4
2014-Nov-21 01:00N 46°36' W 087°24'0 0.0 220 / 41018.6 -12.6 3.5
2014-Nov-21 00:00N 46°36' W 087°24'0 0.0 210 / 51018.3 -10.4 3.5
2014-Nov-20 23:00N 46°36' W 087°24'0 0.0 260 / 81017.3 -8.4 3.5
2014-Nov-20 22:00N 46°36' W 087°24'0 0.0 250 / 121016.3 -7.9 3.5
2014-Nov-20 21:00N 46°36' W 087°24'0 0.0 240 / 91014.9 -6.6 3.5
2014-Nov-20 20:00N 46°36' W 087°24'0 0.0 280 / 121013.9 -6.5 3.4
2014-Nov-20 19:00N 46°36' W 087°24'0 0.0 260 / 91012.5 -6.0 3.4
2014-Nov-20 18:00N 46°36' W 087°24'0 0.0 250 / 151012.2 -6.3 3.2
2014-Nov-20 17:00N 46°36' W 087°24'0 0.0 310 / 61011.5 -5.2 3.0
2014-Nov-20 16:00N 46°36' W 087°24'7 7.3 270 / 171010.8 -7.1 3.9
2014-Nov-20 15:00N 46°42' W 087°18'1312.7 300 / 221009.5 -7.3 5.4
2014-Nov-20 14:00N 46°54' W 087°24'1312.7 330 / 191009.110.8 -6.4 5.5
2014-Nov-20 13:00N 47°06' W 087°30'1312.7 310 / 261008.1 -7.2 5.6
2014-Nov-20 12:00N 47°18' W 087°36'1312.7 330 / 231007.8 -7.2 5.4
2014-Nov-20 11:00N 47°30' W 087°42'1414.5 320 / 241007.1 -7.4 5.4
2014-Nov-20 10:00N 47°42' W 087°54'1010.1 290 / 221007.1 -7.5 5.0
2014-Nov-20 09:00N 47°48' W 088°06'1312.7 310 / 231006.8 -8.0 5.1
2014-Nov-20 08:00N 48°00' W 088°12'6711.1 330 / 201006.8 -8.7 5.2
2014-Nov-20 02:00N 47°42' W 089°48'1212.1 320 / 251006.410.8 1.0-6.8 5.3
2014-Nov-20 01:00N 47°42' W 090°06'1413.5 320 / 221006.8 -7.4 5.3
2014-Nov-20 00:00N 47°36' W 090°24'8 8.1 310 / 261006.1 -6.2 5.0
2014-Nov-19 23:00N 47°36' W 090°36'1413.5 300 / 231006.1 -5.7 4.9
2014-Nov-19 22:00N 47°30' W 090°54'1414.5 320 / 241005.8 -5.7 5.0
2014-Nov-19 21:00N 47°18' W 091°06'1010.1 300 / 241005.4 -4.8 4.9
2014-Nov-19 20:00N 47°12' W 091°18'1514.5 280 / 171005.8 -5.1 4.9
2014-Nov-19 19:00N 47°00' W 091°30'1413.7 290 / 241006.1 -5.1 4.7
2014-Nov-19 18:00N 46°54' W 091°48'1010.2 300 / 271006.4 -5.0 4.5
2014-Nov-19 17:00N 46°48' W 092°00'4 4.1 310 / 181007.5 -5.8 3.9
2014-Nov-19 16:00N 46°48' W 092°06'6 6.0 310 / 111007.5 -6.8 1.0
2014-Nov-19 15:00N 46°42' W 092°06'0 0.0 290 / 101007.5 -7.5 0.9
2014-Nov-19 14:00N 46°42' W 092°06'0 0.0 270 / 101006.8 -7.3 1.0
2014-Nov-19 13:00N 46°42' W 092°06'0 0.0 220 / 71006.1 -8.0 1.1
2014-Nov-19 12:00N 46°42' W 092°06'0 0.0 220 / 71006.1 -7.7 1.4
2014-Nov-19 11:00N 46°42' W 092°06'0 0.0 230 / 51006.1 -8.3 1.8
2014-Nov-19 10:00N 46°42' W 092°06'0 0.0 200 / 41006.1 -9.1 1.7
2014-Nov-19 09:00N 46°42' W 092°06'0 0.0 200 / 31006.8 -8.8 1.9
2014-Nov-19 08:00N 46°42' W 092°06'0 0.0 220 / 51007.1 -7.6 1.9
2014-Nov-19 07:00N 46°42' W 092°06'0 0.0 200 / 41007.5 -9.3 2.0
2014-Nov-19 06:00N 46°42' W 092°06'0 0.0 200 / 41008.5 -9.2 2.1
2014-Nov-19 05:00N 46°42' W 092°06'0 0.0 200 / 61008.8 -9.0 1.9
2014-Nov-19 04:00N 46°42' W 092°06'0 0.0 200 / 91009.8 -8.1 0.4
2014-Nov-19 03:00N 46°42' W 092°06'0 0.0 200 / 81010.5 -7.4 0.4
2014-Nov-19 02:00N 46°42' W 092°06'0 0.0 290 / 91010.8 -7.8 0.4
2014-Nov-19 01:00N 46°42' W 092°06'0 0.0 290 / 101011.5 -7.2 0.4
2014-Nov-19 00:00N 46°42' W 092°06'0 0.0 190 / 81011.9 -7.1 0.4
2014-Nov-18 23:00N 46°42' W 092°06'0 0.0 250 / 81012.2 -7.1 0.4
2014-Nov-18 22:00N 46°42' W 092°06'6 6.0 260 / 131012.2 -7.2 0.6
2014-Nov-18 21:00N 46°48' W 092°06'1413.7 250 / 111012.2 -9.0 4.3
2014-Nov-18 20:00N 46°54' W 091°48'1010.2 250 / 141011.5 -9.1 4.9
2014-Nov-18 19:00N 47°00' W 091°36'1514.5 260 / 141011.2 -8.8 4.8
2014-Nov-18 18:00N 47°12' W 091°24'1413.6 340 / 131010.8 -9.2 4.9
2014-Nov-18 17:00N 47°18' W 091°06'1414.5 290 / 181010.5 -9.5 5.0
2014-Nov-18 16:00N 47°30' W 090°54'1010.1 310 / 181010.8 -11.1 5.1
2014-Nov-18 15:00N 47°36' W 090°42'1413.5 320 / 201009.810.8 -12.7 4.7
2014-Nov-18 14:00N 47°42' W 090°24'1413.5 310 / 171008.8 -11.2 5.0
2014-Nov-18 13:00N 47°48' W 090°06'1212.1 310 / 221007.1 5.3
2014-Nov-18 12:00N 47°48' W 089°48'1313.5 320 / 311005.1 -10.8 5.8
2014-Nov-18 11:00N 47°54' W 089°30'1010.0 340 / 241005.8 -10.5 5.7
2014-Nov-18 10:00N 47°48' W 089°18'4511.2 330 / 251005.8 4.7
2014-Nov-18 06:00N 47°54' W 088°12'7 7.2 350 / 31999.7 -6.9 5.4
2014-Nov-18 05:00N 47°48' W 088°06'1010.1 330 / 301000.3 5.4 -6.8 5.3
2014-Nov-18 04:00N 47°42' W 087°54'1010.1 330 / 28999.7 0.5 -7.1 5.2
2014-Nov-18 03:00N 47°36' W 087°42'10610.6 360 / 27998.6 -6.6 5.6
2014-Nov-17 17:00N 46°54' W 085°18'1413.7 340 / 23999.310.8 -6.0 6.2
2014-Nov-17 16:00N 46°48' W 085°00'1010.2 170 / 141000.7 -6.5 6.1
2014-Nov-17 15:00N 46°42' W 084°48'1514.6 220 / 151002.0 5.4 -6.4 7.2
2014-Nov-17 14:00N 46°30' W 084°36'8 8.3 250 / 161002.0 -4.8 6.6
2014-Nov-17 13:00N 46°30' W 084°24'4 4.1 280 / 61003.0 -3.5 5.4
2014-Nov-17 12:00N 46°30' W 084°18'6 6.0 300 / 41003.2 -3.3 5.2
2014-Nov-17 11:00N 46°24' W 084°18'7 7.3 250 / 31003.9 -2.9 5.3
2014-Nov-17 10:00N 46°18' W 084°12'7 7.3 180 / 81004.2 -2.0 5.0
2014-Nov-17 09:00N 46°12' W 084°06'7 7.3 190 / 141005.2 0.3 4.5
2014-Nov-17 08:00N 46°06' W 084°00'1312.7 170 / 141006.2 -0.3 3.6
2014-Nov-17 07:00N 45°54' W 083°54'1514.6 210 / 231006.9 -0.0 5.5
2014-Nov-17 06:00N 45°42' W 083°42'1010.3 200 / 251007.9 -0.1 5.9
2014-Nov-17 05:00N 45°36' W 083°30'1312.7 190 / 231008.9 -0.2 7.2
2014-Nov-17 04:00N 45°24' W 083°24'1514.7 210 / 201010.310.8 -0.8 7.5
2014-Nov-17 03:00N 45°12' W 083°12'1312.7 220 / 251011.3 -0.4 7.5
2014-Nov-17 02:00N 45°00' W 083°06'1312.7 210 / 231012.010.8 0.4 7.8
2014-Nov-17 01:00N 44°48' W 083°00'1312.7 240 / 211013.3 0.6 7.8
2014-Nov-17 00:00N 44°36' W 082°54'1312.7 230 / 191014.0 1.1 7.7
2014-Nov-16 23:00N 44°24' W 082°48'1312.7 200 / 201015.0 5.4 1.0 0.2 7.6
2014-Nov-16 22:00N 44°12' W 082°42'1312.8 220 / 201015.4 5.4 -0.2 7.7
2014-Nov-16 21:00N 44°00' W 082°36'1312.8 250 / 151016.0 -0.0 7.8
2014-Nov-16 20:00N 43°48' W 082°30'1818.0 220 / 131016.4 -0.1 7.5
2014-Nov-16 19:00N 43°30' W 082°30'1312.8 210 / 141016.7 -0.0 8.1
2014-Nov-16 18:00N 43°18' W 082°24'1212.0 210 / 141017.1 0.2 8.0
2014-Nov-16 17:00N 43°06' W 082°24'6 6.0 220 / 151018.4 0.2 7.9
2014-Nov-16 16:00N 43°00' W 082°24'1312.8 230 / 101019.4 0.3 7.6
2014-Nov-16 15:00N 42°48' W 082°30'6 6.0 200 / 121020.1 -0.1 7.6
2014-Nov-16 14:00N 42°42' W 082°30'1312.8 240 / 101020.4 0.3 7.6
2014-Nov-16 13:00N 42°30' W 082°36'9 8.8 230 / 121020.6 0.9 7.4
2014-Nov-16 12:00N 42°30' W 082°48'1312.8 220 / 151020.9 1.1 5.6
2014-Nov-16 11:00N 42°18' W 082°54'9 8.9 220 / 81021.3 -0.7 5.3
2014-Nov-16 10:00N 42°18' W 083°06'0 0.0 240 / 71021.6 0.1 5.4
2014-Nov-16 09:00N 42°18' W 083°06'0 0.0 200 / 61021.9 0.8 5.4
2014-Nov-16 08:00N 42°18' W 083°06'0 0.0 240 / 41022.3 -0.0 5.5
2014-Nov-16 07:00N 42°18' W 083°06'6 6.0 240 / 51023.3 -0.6 5.8
2014-Nov-16 06:00N 42°12' W 083°06'6 6.0 260 / 51024.0 -1.2 5.8
2014-Nov-16 05:00N 42°06' W 083°06'6 6.0 230 / 61023.6 -0.7 5.4
2014-Nov-16 04:00N 42°00' W 083°06'6 6.0 240 / 101023.9 -0.1 5.9
2014-Nov-16 03:00N 41°54' W 083°06'9 8.9 220 / 111024.5 0.5 6.2
2014-Nov-16 02:00N 41°54' W 083°18'0 0.0 210 / 101024.9 0.4 6.9
2014-Nov-16 01:00N 41°54' W 083°18'0 0.0 150 / 21025.2 -0.4 6.0
2014-Nov-16 00:00N 41°54' W 083°18'0 0.0 230 / 21025.2 -0.3 6.0
2014-Nov-15 23:00N 41°54' W 083°18'0 0.0 190 / 21025.6 -0.3 6.0
2014-Nov-15 22:00N 41°54' W 083°18'0 0.0 200 / 21025.6 -0.4 6.0
2014-Nov-15 21:00N 41°54' W 083°18'0 0.0 230 / 21025.9 -0.2 5.9
2014-Nov-15 20:00N 41°54' W 083°18'0 0.0 070 / 21026.2 -0.2 5.9
2014-Nov-15 19:00N 41°54' W 083°18'0 0.0 120 / 21026.9 -0.4 5.8
2014-Nov-15 18:00N 41°54' W 083°18'0 0.0 240 / 21027.6 -1.1 5.8
2014-Nov-15 17:00N 41°54' W 083°18'0 0.0 330 / 11027.9 -1.2 5.8
2014-Nov-15 16:00N 41°54' W 083°18'0 0.0 350 / 21029.3 -1.8 5.9
2014-Nov-15 15:00N 41°54' W 083°18'0 0.0 190 / 11029.3 -1.3 5.9
2014-Nov-15 14:00N 41°54' W 083°18'0 0.0 030 / 11028.9 -2.8 6.0
2014-Nov-15 13:00N 41°54' W 083°18'0 0.0 270 / 21028.9 -3.8 6.1
2014-Nov-15 12:00N 41°54' W 083°18'0 0.0 030 / 31028.3 -4.1 6.2
2014-Nov-15 11:00N 41°54' W 083°18'0 0.0 040 / 21028.3 -3.4 6.2
2014-Nov-15 10:00N 41°54' W 083°18'0 0.0 010 / 61028.3 -3.0 6.3
2014-Nov-15 09:00N 41°54' W 083°18'4 4.5 290 / 41027.9 -3.0 6.2
2014-Nov-15 08:00N 41°54' W 083°12'7 7.5 260 / 101026.9 -1.3 6.4
2014-Nov-15 07:00N 42°00' W 083°06'1212.0 290 / 131026.9 -1.4 6.5
2014-Nov-15 06:00N 42°12' W 083°06'7 7.5 300 / 61027.0 -1.7 6.4
2014-Nov-15 05:00N 42°18' W 083°00'7 7.5 300 / 61027.0 -1.0 6.2
2014-Nov-15 04:00N 42°24' W 082°54'1110.7 280 / 101025.7 -0.5 6.4
2014-Nov-15 03:00N 42°30' W 082°42'1110.7 240 / 261025.0 0.3 7.6
2014-Nov-15 02:00N 42°36' W 082°30'6 6.0 290 / 61025.5 0.3 8.2
2014-Nov-15 01:00N 42°42' W 082°30'6 6.0 280 / 51025.5 -0.2 8.9
2014-Nov-15 00:00N 42°48' W 082°30'0 0.0 1025.5 -0.1 11.2
2014-Nov-14 20:00N 42°48' W 082°30'0 0.0 240 / 21023.5 1.1 11.0
2014-Nov-14 19:00N 42°48' W 082°30'0 0.0 260 / 101023.2 0.8 11.0
2014-Nov-14 18:00N 42°48' W 082°30'0 0.0 300 / 41023.2 0.7 10.9
2014-Nov-14 17:00N 42°48' W 082°30'0 0.0 1023.5 0.8 10.6
2014-Nov-14 16:00N 42°48' W 082°30'0 0.0 060 / 21023.8 -0.1 10.8
2014-Nov-14 15:00N 42°48' W 082°30'6 6.0 290 / 131023.5 -0.5 8.2
2014-Nov-14 14:00N 42°54' W 082°30'1312.8 250 / 81022.5 -2.3 8.1
2014-Nov-14 13:00N 43°06' W 082°24'6 6.0 270 / 191021.8 -3.0 8.4
2014-Nov-14 12:00N 43°12' W 082°24'1212.0 270 / 221020.8 -2.1 8.9
2014-Nov-14 11:00N 43°24' W 082°24'1212.0 270 / 241020.4 -2.1 9.1
2014-Nov-14 10:00N 43°36' W 082°24'1312.8 270 / 221019.4 -1.3 8.9
2014-Nov-14 09:00N 43°48' W 082°30'1212.0 260 / 241018.8 -0.9 8.7
2014-Nov-14 08:00N 44°00' W 082°30'1312.8 300 / 201018.8 0.4 8.5
2014-Nov-14 07:00N 44°12' W 082°36'1312.7 300 / 211018.4 -0.0 7.9
2014-Nov-14 06:00N 44°24' W 082°42'1312.7 300 / 231018.4 -0.3 7.8
2014-Nov-14 05:00N 44°36' W 082°48'2512.7 280 / 231018.1 -0.5 8.0
2014-Nov-14 03:00N 45°00' W 083°00'1312.7 290 / 241017.410.8 -0.6 8.4
2014-Nov-14 02:00N 45°12' W 083°06'1010.4 290 / 211017.7 -1.3 8.1
2014-Nov-14 01:00N 45°18' W 083°18'1312.7 250 / 261016.7 -1.0 8.2
2014-Nov-14 00:00N 45°30' W 083°24'1514.6 340 / 171017.4 0.3 7.5
2014-Nov-13 23:00N 45°42' W 083°36'1712.2 320 / 171017.1 0.3 6.6
2014-Nov-13 21:33N 45°55' W 083°52'5 8.6
2014-Nov-13 21:00N 46°00' W 083°54'7 7.3 290 / 111016.7 -1.0 4.6
2014-Nov-13 20:00N 46°06' W 084°00'1010.3 280 / 131016.7 -1.9 3.9
2014-Nov-13 19:00N 46°12' W 084°12'6 6.0 270 / 91016.7 -2.0 4.8
2014-Nov-13 18:00N 46°18' W 084°12'1312.7 360 / 31017.1 -2.8 5.1
2014-Nov-13 17:00N 46°30' W 084°18'0 0.0 200 / 41017.4 -3.1 6.0
2014-Nov-13 16:00N 46°30' W 084°18'4 4.1 180 / 31017.7 -3.4 5.7
2014-Nov-13 15:00N 46°30' W 084°24'4 4.1 170 / 51017.6 -4.0 5.8
2014-Nov-13 14:00N 46°30' W 084°30'4 4.1 280 / 51017.6 -2.5 6.7
2014-Nov-13 13:00N 46°30' W 084°36'1514.6 260 / 221017.3 -2.1 7.1
2014-Nov-13 12:00N 46°42' W 084°48'1010.2 310 / 181017.3 -0.8 7.7
2014-Nov-13 11:00N 46°48' W 085°00'1413.7 340 / 201017.3 -1.9 7.2
2014-Nov-13 10:00N 46°54' W 085°18'1010.2 320 / 181017.3 -0.2 7.1
2014-Nov-13 09:00N 47°00' W 085°30'18410.8 330 / 181017.6 -0.7 6.7
2014-Nov-12 16:00N 47°42' W 089°54'1212.1 1020.710.8 -4.0 6.1
2014-Nov-12 15:00N 47°42' W 090°12'1413.5 310 / 171020.7 -3.2 5.9
2014-Nov-12 14:00N 47°36' W 090°30'1413.5 330 / 161020.7 -3.1 6.3
2014-Nov-12 13:00N 47°30' W 090°48'1010.1 310 / 171020.7 -3.1 6.0
2014-Nov-12 12:00N 47°24' W 091°00'1414.5 310 / 111021.0 -3.1 6.0
2014-Nov-12 11:00N 47°12' W 091°12'1010.1 290 / 121021.7 -3.3 6.2
2014-Nov-12 10:00N 47°06' W 091°24'1413.7 290 / 121022.0 -4.4 6.4
2014-Nov-12 09:00N 47°00' W 091°42'1010.2 300 / 181022.4 -4.5 6.4
2014-Nov-12 08:00N 46°54' W 091°54'1010.2 310 / 151022.7 -4.3 6.3
2014-Nov-12 07:00N 46°48' W 092°06'6 6.0 220 / 41023.0 -4.6 4.9
2014-Nov-12 06:00N 46°42' W 092°06'0 0.0 260 / 81023.0 -4.3 4.4
2014-Nov-12 05:00N 46°42' W 092°06'0 0.0 320 / 151022.4 -4.2 4.4
2014-Nov-12 04:00N 46°42' W 092°06'0 0.0 340 / 141022.4 -4.1 4.7
2014-Nov-12 03:00N 46°42' W 092°06'0 0.0 340 / 111022.4 -4.4 4.8
2014-Nov-12 02:00N 46°42' W 092°06'0 0.0 060 / 111022.0 -4.8 4.5
2014-Nov-12 01:00N 46°42' W 092°06'0 0.0 340 / 131022.4 -4.8 4.7
2014-Nov-12 00:00N 46°42' W 092°06'0 0.0 320 / 161022.0 -4.3 4.5
2014-Nov-11 23:00N 46°42' W 092°06'   330 / 111022.0 -4.3 4.5
Track history (hours):
 
Tides and Currents Weather Stations Pressure Air Temp Water Temp Dewpoint Dewpoint Depression Visibility Wind Speed Wind Dir Waves Ship Positions

Paul R Tregurtha

Owner: THE INTERLAKE STEAMSHIP COMPANY, Middleburg Heights, OH. More information available from US FCC via Universal Licensing System and Coast Guard Vessel Documentation Center.

Last reported at 2014-Nov-21 23:00 UTC. Time now 2014-Nov-21 23:51 UTC.
Position N 47°12' W 088°48'.

Length 308 m; draft 8.5 m.

Type: Cargo ship. MMSI: 366904940.

Wind from 210 at 30 knots

Barometer 1012.2 mb
Air temperature -1.1 ° C
Visibility: greater than 5.4 NM
Water temperature 5.2 ° C

Date/timePositionNaut miles runAvg speedWind from/ knotsBaromVisibWave heightAir tempDewpointWater temp
2014-Nov-21 23:00N 47°12' W 088°48'1010.1 210 / 301012.2 5.4 -1.1 5.2
2014-Nov-21 22:00N 47°18' W 088°36'1010.1 190 / 231013.2 -1.1 6.3
2014-Nov-21 21:00N 47°24' W 088°24'1413.6 180 / 201014.6 -3.9 6.4
2014-Nov-21 20:00N 47°30' W 088°06'1212.2 190 / 241016.3 -4.8 5.6
2014-Nov-21 19:00N 47°30' W 087°48'7 7.2 220 / 191018.3 -5.7 5.6
2014-Nov-21 18:00N 47°24' W 087°42'1312.7 220 / 231019.6 -3.7 5.3
2014-Nov-21 17:00N 47°12' W 087°36'1312.7 220 / 181022.0 -5.5 5.3
2014-Nov-21 16:00N 47°00' W 087°30'1312.7 240 / 141023.4 -7.3 5.1
2014-Nov-21 15:00N 46°48' W 087°24'1212.0 230 / 171024.4 -8.4 5.5
2014-Nov-21 14:00N 46°36' W 087°24'0 0.0 240 / 111025.7 -10.6 3.2
2014-Nov-21 13:00N 46°36' W 087°24'0 0.0 200 / 71025.1 -11.9 2.9
2014-Nov-21 12:00N 46°36' W 087°24'0 0.0 230 / 81024.7 -11.5 2.9
2014-Nov-21 11:00N 46°36' W 087°24'0 0.0 210 / 71024.0 -11.1 3.0
2014-Nov-21 10:00N 46°36' W 087°24'0 0.0 310 / 61023.7 -10.3 3.0
2014-Nov-21 09:00N 46°36' W 087°24'0 0.0 200 / 61023.0 -10.8 3.0
2014-Nov-21 08:00N 46°36' W 087°24'0 0.0 200 / 71023.0 -9.7 3.1
2014-Nov-21 07:00N 46°36' W 087°24'0 0.0 160 / 51022.4 -7.5 3.2
2014-Nov-21 06:00N 46°36' W 087°24'0 0.0 220 / 61021.7 -9.3 3.3
2014-Nov-21 05:00N 46°36' W 087°24'0 0.0 210 / 61020.7 -8.6 3.3
2014-Nov-21 04:00N 46°36' W 087°24'0 0.0 210 / 81020.0 -9.6 3.4
2014-Nov-21 03:00N 46°36' W 087°24'0 0.0 210 / 71019.3 -10.4 3.4
2014-Nov-21 02:00N 46°36' W 087°24'0 0.0 200 / 71019.0 -11.2 3.4
2014-Nov-21 01:00N 46°36' W 087°24'0 0.0 220 / 41018.6 -12.6 3.5
2014-Nov-21 00:00N 46°36' W 087°24'0 0.0 210 / 51018.3 -10.4 3.5
2014-Nov-20 23:00N 46°36' W 087°24'0 0.0 260 / 81017.3 -8.4 3.5
2014-Nov-20 22:00N 46°36' W 087°24'0 0.0 250 / 121016.3 -7.9 3.5
2014-Nov-20 21:00N 46°36' W 087°24'0 0.0 240 / 91014.9 -6.6 3.5
2014-Nov-20 20:00N 46°36' W 087°24'0 0.0 280 / 121013.9 -6.5 3.4
2014-Nov-20 19:00N 46°36' W 087°24'0 0.0 260 / 91012.5 -6.0 3.4
2014-Nov-20 18:00N 46°36' W 087°24'0 0.0 250 / 151012.2 -6.3 3.2
2014-Nov-20 17:00N 46°36' W 087°24'0 0.0 310 / 61011.5 -5.2 3.0
2014-Nov-20 16:00N 46°36' W 087°24'7 7.3 270 / 171010.8 -7.1 3.9
2014-Nov-20 15:00N 46°42' W 087°18'1312.7 300 / 221009.5 -7.3 5.4
2014-Nov-20 14:00N 46°54' W 087°24'1312.7 330 / 191009.110.8 -6.4 5.5
2014-Nov-20 13:00N 47°06' W 087°30'1312.7 310 / 261008.1 -7.2 5.6
2014-Nov-20 12:00N 47°18' W 087°36'1312.7 330 / 231007.8 -7.2 5.4
2014-Nov-20 11:00N 47°30' W 087°42'1414.5 320 / 241007.1 -7.4 5.4
2014-Nov-20 10:00N 47°42' W 087°54'1010.1 290 / 221007.1 -7.5 5.0
2014-Nov-20 09:00N 47°48' W 088°06'1312.7 310 / 231006.8 -8.0 5.1
2014-Nov-20 08:00N 48°00' W 088°12'6711.1 330 / 201006.8 -8.7 5.2
2014-Nov-20 02:00N 47°42' W 089°48'1212.1 320 / 251006.410.8 1.0-6.8 5.3
2014-Nov-20 01:00N 47°42' W 090°06'1413.5 320 / 221006.8 -7.4 5.3
2014-Nov-20 00:00N 47°36' W 090°24'8 8.1 310 / 261006.1 -6.2 5.0
2014-Nov-19 23:00N 47°36' W 090°36'1413.5 300 / 231006.1 -5.7 4.9
2014-Nov-19 22:00N 47°30' W 090°54'1414.5 320 / 241005.8 -5.7 5.0
2014-Nov-19 21:00N 47°18' W 091°06'1010.1 300 / 241005.4 -4.8 4.9
2014-Nov-19 20:00N 47°12' W 091°18'1514.5 280 / 171005.8 -5.1 4.9
2014-Nov-19 19:00N 47°00' W 091°30'1413.7 290 / 241006.1 -5.1 4.7
2014-Nov-19 18:00N 46°54' W 091°48'1010.2 300 / 271006.4 -5.0 4.5
2014-Nov-19 17:00N 46°48' W 092°00'4 4.1 310 / 181007.5 -5.8 3.9
2014-Nov-19 16:00N 46°48' W 092°06'6 6.0 310 / 111007.5 -6.8 1.0
2014-Nov-19 15:00N 46°42' W 092°06'0 0.0 290 / 101007.5 -7.5 0.9
2014-Nov-19 14:00N 46°42' W 092°06'0 0.0 270 / 101006.8 -7.3 1.0
2014-Nov-19 13:00N 46°42' W 092°06'0 0.0 220 / 71006.1 -8.0 1.1
2014-Nov-19 12:00N 46°42' W 092°06'0 0.0 220 / 71006.1 -7.7 1.4
2014-Nov-19 11:00N 46°42' W 092°06'0 0.0 230 / 51006.1 -8.3 1.8
2014-Nov-19 10:00N 46°42' W 092°06'0 0.0 200 / 41006.1 -9.1 1.7
2014-Nov-19 09:00N 46°42' W 092°06'0 0.0 200 / 31006.8 -8.8 1.9
2014-Nov-19 08:00N 46°42' W 092°06'0 0.0 220 / 51007.1 -7.6 1.9
2014-Nov-19 07:00N 46°42' W 092°06'0 0.0 200 / 41007.5 -9.3 2.0
2014-Nov-19 06:00N 46°42' W 092°06'0 0.0 200 / 41008.5 -9.2 2.1
2014-Nov-19 05:00N 46°42' W 092°06'0 0.0 200 / 61008.8 -9.0 1.9
2014-Nov-19 04:00N 46°42' W 092°06'0 0.0 200 / 91009.8 -8.1 0.4
2014-Nov-19 03:00N 46°42' W 092°06'0 0.0 200 / 81010.5 -7.4 0.4
2014-Nov-19 02:00N 46°42' W 092°06'0 0.0 290 / 91010.8 -7.8 0.4
2014-Nov-19 01:00N 46°42' W 092°06'0 0.0 290 / 101011.5 -7.2 0.4
2014-Nov-19 00:00N 46°42' W 092°06'0 0.0 190 / 81011.9 -7.1 0.4
2014-Nov-18 23:00N 46°42' W 092°06'0 0.0 250 / 81012.2 -7.1 0.4
2014-Nov-18 22:00N 46°42' W 092°06'6 6.0 260 / 131012.2 -7.2 0.6
2014-Nov-18 21:00N 46°48' W 092°06'1413.7 250 / 111012.2 -9.0 4.3
2014-Nov-18 20:00N 46°54' W 091°48'1010.2 250 / 141011.5 -9.1 4.9
2014-Nov-18 19:00N 47°00' W 091°36'1514.5 260 / 141011.2 -8.8 4.8
2014-Nov-18 18:00N 47°12' W 091°24'1413.6 340 / 131010.8 -9.2 4.9
2014-Nov-18 17:00N 47°18' W 091°06'1414.5 290 / 181010.5 -9.5 5.0
2014-Nov-18 16:00N 47°30' W 090°54'1010.1 310 / 181010.8 -11.1 5.1
2014-Nov-18 15:00N 47°36' W 090°42'1413.5 320 / 201009.810.8 -12.7 4.7
2014-Nov-18 14:00N 47°42' W 090°24'1413.5 310 / 171008.8 -11.2 5.0
2014-Nov-18 13:00N 47°48' W 090°06'1212.1 310 / 221007.1 5.3
2014-Nov-18 12:00N 47°48' W 089°48'1313.5 320 / 311005.1 -10.8 5.8
2014-Nov-18 11:00N 47°54' W 089°30'1010.0 340 / 241005.8 -10.5 5.7
2014-Nov-18 10:00N 47°48' W 089°18'4511.2 330 / 251005.8 4.7
2014-Nov-18 06:00N 47°54' W 088°12'7 7.2 350 / 31999.7 -6.9 5.4
2014-Nov-18 05:00N 47°48' W 088°06'1010.1 330 / 301000.3 5.4 -6.8 5.3
2014-Nov-18 04:00N 47°42' W 087°54'1010.1 330 / 28999.7 0.5 -7.1 5.2
2014-Nov-18 03:00N 47°36' W 087°42'10610.6 360 / 27998.6 -6.6 5.6
2014-Nov-17 17:00N 46°54' W 085°18'1413.7 340 / 23999.310.8 -6.0 6.2
2014-Nov-17 16:00N 46°48' W 085°00'1010.2 170 / 141000.7 -6.5 6.1
2014-Nov-17 15:00N 46°42' W 084°48'1514.6 220 / 151002.0 5.4 -6.4 7.2
2014-Nov-17 14:00N 46°30' W 084°36'8 8.3 250 / 161002.0 -4.8 6.6
2014-Nov-17 13:00N 46°30' W 084°24'4 4.1 280 / 61003.0 -3.5 5.4
2014-Nov-17 12:00N 46°30' W 084°18'6 6.0 300 / 41003.2 -3.3 5.2
2014-Nov-17 11:00N 46°24' W 084°18'7 7.3 250 / 31003.9 -2.9 5.3
2014-Nov-17 10:00N 46°18' W 084°12'7 7.3 180 / 81004.2 -2.0 5.0
2014-Nov-17 09:00N 46°12' W 084°06'7 7.3 190 / 141005.2 0.3 4.5
2014-Nov-17 08:00N 46°06' W 084°00'1312.7 170 / 141006.2 -0.3 3.6
2014-Nov-17 07:00N 45°54' W 083°54'1514.6 210 / 231006.9 -0.0 5.5
2014-Nov-17 06:00N 45°42' W 083°42'1010.3 200 / 251007.9 -0.1 5.9
2014-Nov-17 05:00N 45°36' W 083°30'1312.7 190 / 231008.9 -0.2 7.2
2014-Nov-17 04:00N 45°24' W 083°24'1514.7 210 / 201010.310.8 -0.8 7.5
2014-Nov-17 03:00N 45°12' W 083°12'1312.7 220 / 251011.3 -0.4 7.5
2014-Nov-17 02:00N 45°00' W 083°06'1312.7 210 / 231012.010.8 0.4 7.8
2014-Nov-17 01:00N 44°48' W 083°00'1312.7 240 / 211013.3 0.6 7.8
2014-Nov-17 00:00N 44°36' W 082°54'1312.7 230 / 191014.0 1.1 7.7
2014-Nov-16 23:00N 44°24' W 082°48'1312.7 200 / 201015.0 5.4 1.0 0.2 7.6
2014-Nov-16 22:00N 44°12' W 082°42'1312.8 220 / 201015.4 5.4 -0.2 7.7
2014-Nov-16 21:00N 44°00' W 082°36'1312.8 250 / 151016.0 -0.0 7.8
2014-Nov-16 20:00N 43°48' W 082°30'1818.0 220 / 131016.4 -0.1 7.5
2014-Nov-16 19:00N 43°30' W 082°30'1312.8 210 / 141016.7 -0.0 8.1
2014-Nov-16 18:00N 43°18' W 082°24'1212.0 210 / 141017.1 0.2 8.0
2014-Nov-16 17:00N 43°06' W 082°24'6 6.0 220 / 151018.4 0.2 7.9
2014-Nov-16 16:00N 43°00' W 082°24'1312.8 230 / 101019.4 0.3 7.6
2014-Nov-16 15:00N 42°48' W 082°30'6 6.0 200 / 121020.1 -0.1 7.6
2014-Nov-16 14:00N 42°42' W 082°30'1312.8 240 / 101020.4 0.3 7.6
2014-Nov-16 13:00N 42°30' W 082°36'9 8.8 230 / 121020.6 0.9 7.4
2014-Nov-16 12:00N 42°30' W 082°48'1312.8 220 / 151020.9 1.1 5.6
2014-Nov-16 11:00N 42°18' W 082°54'9 8.9 220 / 81021.3 -0.7 5.3
2014-Nov-16 10:00N 42°18' W 083°06'0 0.0 240 / 71021.6 0.1 5.4
2014-Nov-16 09:00N 42°18' W 083°06'0 0.0 200 / 61021.9 0.8 5.4
2014-Nov-16 08:00N 42°18' W 083°06'0 0.0 240 / 41022.3 -0.0 5.5
2014-Nov-16 07:00N 42°18' W 083°06'6 6.0 240 / 51023.3 -0.6 5.8
2014-Nov-16 06:00N 42°12' W 083°06'6 6.0 260 / 51024.0 -1.2 5.8
2014-Nov-16 05:00N 42°06' W 083°06'6 6.0 230 / 61023.6 -0.7 5.4
2014-Nov-16 04:00N 42°00' W 083°06'6 6.0 240 / 101023.9 -0.1 5.9
2014-Nov-16 03:00N 41°54' W 083°06'9 8.9 220 / 111024.5 0.5 6.2
2014-Nov-16 02:00N 41°54' W 083°18'0 0.0 210 / 101024.9 0.4 6.9
2014-Nov-16 01:00N 41°54' W 083°18'0 0.0 150 / 21025.2 -0.4 6.0
2014-Nov-16 00:00N 41°54' W 083°18'0 0.0 230 / 21025.2 -0.3 6.0
2014-Nov-15 23:00N 41°54' W 083°18'0 0.0 190 / 21025.6 -0.3 6.0
2014-Nov-15 22:00N 41°54' W 083°18'0 0.0 200 / 21025.6 -0.4 6.0
2014-Nov-15 21:00N 41°54' W 083°18'0 0.0 230 / 21025.9 -0.2 5.9
2014-Nov-15 20:00N 41°54' W 083°18'0 0.0 070 / 21026.2 -0.2 5.9
2014-Nov-15 19:00N 41°54' W 083°18'0 0.0 120 / 21026.9 -0.4 5.8
2014-Nov-15 18:00N 41°54' W 083°18'0 0.0 240 / 21027.6 -1.1 5.8
2014-Nov-15 17:00N 41°54' W 083°18'0 0.0 330 / 11027.9 -1.2 5.8
2014-Nov-15 16:00N 41°54' W 083°18'0 0.0 350 / 21029.3 -1.8 5.9
2014-Nov-15 15:00N 41°54' W 083°18'0 0.0 190 / 11029.3 -1.3 5.9
2014-Nov-15 14:00N 41°54' W 083°18'0 0.0 030 / 11028.9 -2.8 6.0
2014-Nov-15 13:00N 41°54' W 083°18'0 0.0 270 / 21028.9 -3.8 6.1
2014-Nov-15 12:00N 41°54' W 083°18'0 0.0 030 / 31028.3 -4.1 6.2
2014-Nov-15 11:00N 41°54' W 083°18'0 0.0 040 / 21028.3 -3.4 6.2
2014-Nov-15 10:00N 41°54' W 083°18'0 0.0 010 / 61028.3 -3.0 6.3
2014-Nov-15 09:00N 41°54' W 083°18'4 4.5 290 / 41027.9 -3.0 6.2
2014-Nov-15 08:00N 41°54' W 083°12'7 7.5 260 / 101026.9 -1.3 6.4
2014-Nov-15 07:00N 42°00' W 083°06'1212.0 290 / 131026.9 -1.4 6.5
2014-Nov-15 06:00N 42°12' W 083°06'7 7.5 300 / 61027.0 -1.7 6.4
2014-Nov-15 05:00N 42°18' W 083°00'7 7.5 300 / 61027.0 -1.0 6.2
2014-Nov-15 04:00N 42°24' W 082°54'1110.7 280 / 101025.7 -0.5 6.4
2014-Nov-15 03:00N 42°30' W 082°42'1110.7 240 / 261025.0 0.3 7.6
2014-Nov-15 02:00N 42°36' W 082°30'6 6.0 290 / 61025.5 0.3 8.2
2014-Nov-15 01:00N 42°42' W 082°30'6 6.0 280 / 51025.5 -0.2 8.9
2014-Nov-15 00:00N 42°48' W 082°30'0 0.0 1025.5 -0.1 11.2
2014-Nov-14 20:00N 42°48' W 082°30'0 0.0 240 / 21023.5 1.1 11.0
2014-Nov-14 19:00N 42°48' W 082°30'0 0.0 260 / 101023.2 0.8 11.0
2014-Nov-14 18:00N 42°48' W 082°30'0 0.0 300 / 41023.2 0.7 10.9
2014-Nov-14 17:00N 42°48' W 082°30'0 0.0 1023.5 0.8 10.6
2014-Nov-14 16:00N 42°48' W 082°30'0 0.0 060 / 21023.8 -0.1 10.8
2014-Nov-14 15:00N 42°48' W 082°30'6 6.0 290 / 131023.5 -0.5 8.2
2014-Nov-14 14:00N 42°54' W 082°30'1312.8 250 / 81022.5 -2.3 8.1
2014-Nov-14 13:00N 43°06' W 082°24'6 6.0 270 / 191021.8 -3.0 8.4
2014-Nov-14 12:00N 43°12' W 082°24'1212.0 270 / 221020.8 -2.1 8.9
2014-Nov-14 11:00N 43°24' W 082°24'1212.0 270 / 241020.4 -2.1 9.1
2014-Nov-14 10:00N 43°36' W 082°24'1312.8 270 / 221019.4 -1.3 8.9
2014-Nov-14 09:00N 43°48' W 082°30'1212.0 260 / 241018.8 -0.9 8.7
2014-Nov-14 08:00N 44°00' W 082°30'1312.8 300 / 201018.8 0.4 8.5
2014-Nov-14 07:00N 44°12' W 082°36'1312.7 300 / 211018.4 -0.0 7.9
2014-Nov-14 06:00N 44°24' W 082°42'1312.7 300 / 231018.4 -0.3 7.8
2014-Nov-14 05:00N 44°36' W 082°48'2512.7 280 / 231018.1 -0.5 8.0
2014-Nov-14 03:00N 45°00' W 083°00'1312.7 290 / 241017.410.8 -0.6 8.4
2014-Nov-14 02:00N 45°12' W 083°06'1010.4 290 / 211017.7 -1.3 8.1
2014-Nov-14 01:00N 45°18' W 083°18'1312.7 250 / 261016.7 -1.0 8.2
2014-Nov-14 00:00N 45°30' W 083°24'1514.6 340 / 171017.4 0.3 7.5
2014-Nov-13 23:00N 45°42' W 083°36'1712.2 320 / 171017.1 0.3 6.6
2014-Nov-13 21:33N 45°55' W 083°52'5 8.6
2014-Nov-13 21:00N 46°00' W 083°54'7 7.3 290 / 111016.7 -1.0 4.6
2014-Nov-13 20:00N 46°06' W 084°00'1010.3 280 / 131016.7 -1.9 3.9
2014-Nov-13 19:00N 46°12' W 084°12'6 6.0 270 / 91016.7 -2.0 4.8
2014-Nov-13 18:00N 46°18' W 084°12'1312.7 360 / 31017.1 -2.8 5.1
2014-Nov-13 17:00N 46°30' W 084°18'0 0.0 200 / 41017.4 -3.1 6.0
2014-Nov-13 16:00N 46°30' W 084°18'4 4.1 180 / 31017.7 -3.4 5.7
2014-Nov-13 15:00N 46°30' W 084°24'4 4.1 170 / 51017.6 -4.0 5.8
2014-Nov-13 14:00N 46°30' W 084°30'4 4.1 280 / 51017.6 -2.5 6.7
2014-Nov-13 13:00N 46°30' W 084°36'1514.6 260 / 221017.3 -2.1 7.1
2014-Nov-13 12:00N 46°42' W 084°48'1010.2 310 / 181017.3 -0.8 7.7
2014-Nov-13 11:00N 46°48' W 085°00'1413.7 340 / 201017.3 -1.9 7.2
2014-Nov-13 10:00N 46°54' W 085°18'1010.2 320 / 181017.3 -0.2 7.1
2014-Nov-13 09:00N 47°00' W 085°30'18410.8 330 / 181017.6 -0.7 6.7
2014-Nov-12 16:00N 47°42' W 089°54'1212.1 1020.710.8 -4.0 6.1
2014-Nov-12 15:00N 47°42' W 090°12'1413.5 310 / 171020.7 -3.2 5.9
2014-Nov-12 14:00N 47°36' W 090°30'1413.5 330 / 161020.7 -3.1 6.3
2014-Nov-12 13:00N 47°30' W 090°48'1010.1 310 / 171020.7 -3.1 6.0
2014-Nov-12 12:00N 47°24' W 091°00'1414.5 310 / 111021.0 -3.1 6.0
2014-Nov-12 11:00N 47°12' W 091°12'1010.1 290 / 121021.7 -3.3 6.2
2014-Nov-12 10:00N 47°06' W 091°24'1413.7 290 / 121022.0 -4.4 6.4
2014-Nov-12 09:00N 47°00' W 091°42'1010.2 300 / 181022.4 -4.5 6.4
2014-Nov-12 08:00N 46°54' W 091°54'1010.2 310 / 151022.7 -4.3 6.3
2014-Nov-12 07:00N 46°48' W 092°06'6 6.0 220 / 41023.0 -4.6 4.9
2014-Nov-12 06:00N 46°42' W 092°06'0 0.0 260 / 81023.0 -4.3 4.4
2014-Nov-12 05:00N 46°42' W 092°06'0 0.0 320 / 151022.4 -4.2 4.4
2014-Nov-12 04:00N 46°42' W 092°06'0 0.0 340 / 141022.4 -4.1 4.7
2014-Nov-12 03:00N 46°42' W 092°06'0 0.0 340 / 111022.4 -4.4 4.8
2014-Nov-12 02:00N 46°42' W 092°06'0 0.0 060 / 111022.0 -4.8 4.5
2014-Nov-12 01:00N 46°42' W 092°06'0 0.0 340 / 131022.4 -4.8 4.7
2014-Nov-12 00:00N 46°42' W 092°06'0 0.0 320 / 161022.0 -4.3 4.5
2014-Nov-11 23:00N 46°42' W 092°06'   330 / 111022.0 -4.3 4.5

Dump ship's entire track history